createdAt,value
2023-04-19T00:01:57.772Z,8.98
2023-04-19T00:04:24.837Z,8.93
2023-04-19T00:06:51.790Z,8.85
2023-04-19T00:09:18.902Z,8.97
2023-04-19T00:11:45.728Z,8.91
2023-04-19T00:14:12.751Z,8.91
2023-04-19T00:16:39.815Z,8.90
2023-04-19T00:19:06.647Z,8.74
2023-04-19T00:21:33.554Z,8.80
2023-04-19T00:24:02.707Z,8.64
2023-04-19T00:26:29.537Z,8.72
2023-04-19T00:28:57.182Z,8.94
2023-04-19T00:31:24.152Z,8.81
2023-04-19T00:33:51.135Z,8.77
2023-04-19T00:36:18.355Z,8.64
2023-04-19T00:38:47.096Z,8.71
2023-04-19T00:41:14.045Z,8.64
2023-04-19T00:43:40.995Z,8.46
2023-04-19T00:46:07.984Z,8.47
2023-04-19T00:48:35.574Z,8.23
2023-04-19T00:51:02.767Z,7.99
2023-04-19T00:53:30.074Z,8.02
2023-04-19T00:56:00.122Z,8.07
2023-04-19T00:58:28.301Z,7.93
2023-04-19T01:00:55.268Z,8.03
2023-04-19T01:03:22.307Z,8.02
2023-04-19T01:05:51.311Z,7.88
2023-04-19T01:08:18.155Z,7.77
2023-04-19T01:10:45.515Z,7.67
2023-04-19T01:13:12.529Z,7.74
2023-04-19T01:15:39.413Z,7.73
2023-04-19T01:18:06.337Z,7.72
2023-04-19T01:20:33.303Z,7.46
2023-04-19T01:23:00.149Z,7.44
2023-04-19T01:25:27.564Z,7.25
2023-04-19T01:27:54.467Z,7.40
2023-04-19T01:30:24.013Z,7.31
2023-04-19T01:32:50.964Z,7.31
2023-04-19T01:35:18.009Z,7.23
2023-04-19T01:37:44.903Z,7.00
2023-04-19T01:40:12.302Z,7.08
2023-04-19T01:42:39.281Z,7.14
2023-04-19T01:45:07.004Z,7.21
2023-04-19T01:47:33.991Z,7.10
2023-04-19T01:50:02.520Z,6.78
2023-04-19T01:52:29.389Z,6.68
2023-04-19T01:54:56.205Z,6.73
2023-04-19T01:57:23.160Z,6.95
2023-04-19T01:59:50.042Z,6.67
2023-04-19T02:02:17.087Z,6.52
2023-04-19T02:04:44.054Z,6.57
2023-04-19T02:07:10.977Z,6.68
2023-04-19T02:09:38.810Z,6.63
2023-04-19T02:12:06.322Z,6.59
2023-04-19T02:14:33.326Z,6.54
2023-04-19T02:17:00.381Z,6.51
2023-04-19T02:19:27.399Z,6.66
2023-04-19T02:21:54.255Z,6.70
2023-04-19T02:24:21.215Z,6.63
2023-04-19T02:26:48.100Z,6.75
2023-04-19T02:29:15.150Z,7.08
2023-04-19T02:31:42.060Z,7.05
2023-04-19T02:34:09.532Z,6.92
2023-04-19T02:36:36.429Z,6.88
2023-04-19T02:39:03.340Z,6.75
2023-04-19T02:41:30.260Z,6.95
2023-04-19T02:43:57.156Z,7.06
2023-04-19T02:46:24.200Z,7.12
2023-04-19T02:48:51.385Z,7.23
2023-04-19T02:51:18.388Z,7.39
2023-04-19T02:53:45.286Z,7.48
2023-04-19T02:56:12.234Z,7.73
2023-04-19T02:58:39.062Z,7.87
2023-04-19T03:01:06.885Z,7.89
2023-04-19T03:03:33.972Z,8.26
2023-04-19T03:06:01.401Z,8.17
2023-04-19T03:08:29.449Z,8.43
2023-04-19T03:10:56.351Z,8.90
2023-04-19T03:13:23.219Z,9.09
2023-04-19T03:15:50.902Z,9.05
2023-04-19T03:18:21.886Z,9.42
2023-04-19T03:20:48.957Z,9.65
2023-04-19T03:23:16.156Z,9.88
2023-04-19T03:25:43.253Z,10.25
2023-04-19T03:28:23.836Z,10.51
2023-04-19T03:31:11.118Z,10.50
2023-04-19T03:33:39.218Z,10.50
2023-04-19T03:36:06.583Z,11.29
2023-04-19T03:38:33.980Z,12.03
2023-04-19T03:41:02.132Z,12.25
2023-04-19T03:43:34.198Z,13.10
2023-04-19T03:46:01.170Z,13.68
2023-04-19T03:48:28.622Z,14.02
2023-04-19T03:50:56.715Z,14.29
2023-04-19T03:53:24.116Z,14.55
2023-04-19T03:55:51.056Z,14.92
2023-04-19T03:58:17.916Z,15.64
2023-04-19T04:00:59.334Z,16.15
2023-04-19T04:03:26.668Z,16.63
2023-04-19T04:05:54.015Z,17.14
2023-04-19T04:08:20.965Z,17.30
2023-04-19T04:10:47.949Z,17.39
2023-04-19T04:13:15.382Z,17.76
2023-04-19T04:15:49.920Z,17.94
2023-04-19T04:18:17.630Z,17.94
2023-04-19T04:20:45.337Z,17.93
2023-04-19T04:23:12.659Z,17.98
2023-04-19T04:25:44.224Z,17.84
2023-04-19T04:28:13.551Z,18.10
2023-04-19T04:30:41.886Z,18.20
2023-04-19T04:33:10.956Z,18.39
2023-04-19T04:35:39.208Z,18.25
2023-04-19T04:38:23.712Z,18.46
2023-04-19T04:40:58.114Z,18.29
2023-04-19T04:43:26.304Z,18.09
2023-04-19T04:45:54.756Z,18.02
2023-04-19T04:48:21.951Z,18.01
2023-04-19T04:50:48.844Z,18.20
2023-04-19T04:53:16.003Z,18.30
2023-04-19T04:55:45.552Z,18.25
2023-04-19T04:58:13.848Z,18.10
2023-04-19T05:00:55.636Z,18.42
2023-04-19T05:03:23.998Z,18.38
2023-04-19T05:05:56.654Z,18.56
2023-04-19T05:08:26.595Z,18.79
2023-04-19T05:10:57.692Z,18.83
2023-04-19T05:13:27.825Z,18.64
2023-04-19T05:15:55.272Z,18.54
2023-04-19T05:18:22.219Z,18.54
2023-04-19T05:20:52.989Z,18.28
2023-04-19T05:23:25.744Z,18.14
2023-04-19T05:25:53.102Z,18.12
2023-04-19T05:28:25.095Z,17.67
2023-04-19T05:31:18.152Z,17.72
2023-04-19T05:33:56.328Z,17.86
2023-04-19T05:36:25.078Z,17.50
2023-04-19T05:38:52.700Z,17.66
2023-04-19T05:41:20.620Z,17.61
2023-04-19T05:43:47.950Z,17.33
2023-04-19T05:46:18.632Z,17.61
2023-04-19T05:48:47.632Z,17.75
2023-04-19T05:51:33.093Z,17.81
2023-04-19T05:54:14.327Z,17.76
2023-04-19T05:56:44.608Z,17.62
2023-04-19T05:59:20.979Z,17.88
2023-04-19T06:01:48.033Z,18.05
2023-04-19T06:04:15.537Z,18.33
2023-04-19T06:06:43.429Z,18.12
2023-04-19T06:09:18.312Z,18.56
2023-04-19T06:11:50.867Z,19.02
2023-04-19T06:14:18.858Z,18.92
2023-04-19T06:16:46.868Z,18.91
2023-04-19T06:19:13.904Z,18.63
2023-04-19T06:21:41.678Z,18.49
2023-04-19T06:24:09.293Z,18.64
2023-04-19T06:26:36.252Z,18.57
2023-04-19T06:29:04.977Z,18.69
2023-04-19T06:31:32.856Z,19.05
2023-04-19T06:33:59.762Z,19.09
2023-04-19T06:36:26.836Z,19.12
2023-04-19T06:38:53.828Z,18.99
2023-04-19T06:41:20.677Z,18.83
2023-04-19T06:43:47.634Z,18.73
2023-04-19T06:46:15.795Z,18.74
2023-04-19T06:48:44.647Z,18.91
2023-04-19T06:51:11.543Z,19.02
2023-04-19T06:53:40.488Z,18.35
2023-04-19T06:56:11.025Z,18.36
2023-04-19T06:58:39.526Z,18.74
2023-04-19T07:01:06.422Z,18.63
2023-04-19T07:03:33.882Z,18.73
2023-04-19T07:06:00.965Z,18.10
2023-04-19T07:08:42.440Z,18.35
2023-04-19T07:11:16.155Z,18.45
2023-04-19T07:13:43.048Z,18.60
2023-04-19T07:16:10.050Z,18.36
2023-04-19T07:18:37.613Z,18.65
2023-04-19T07:21:04.521Z,18.79
2023-04-19T07:23:33.255Z,19.16
2023-04-19T07:26:00.181Z,19.04
2023-04-19T07:28:31.607Z,19.17
2023-04-19T07:31:00.925Z,18.90
2023-04-19T07:33:28.843Z,18.90
2023-04-19T07:35:56.034Z,18.29
2023-04-19T07:38:23.198Z,18.68
2023-04-19T07:40:50.200Z,18.38
2023-04-19T07:43:17.064Z,19.19
2023-04-19T07:45:44.096Z,18.85
2023-04-19T07:48:11.002Z,19.20
2023-04-19T07:50:37.958Z,18.99
2023-04-19T07:53:04.811Z,18.87
2023-04-19T07:55:31.851Z,18.76
2023-04-19T07:57:58.713Z,18.86
2023-04-19T08:00:25.825Z,18.68
2023-04-19T08:02:53.062Z,18.81
2023-04-19T08:05:20.408Z,18.24
2023-04-19T08:07:47.410Z,18.70
2023-04-19T08:10:15.032Z,19.11
2023-04-19T08:12:50.708Z,19.02
2023-04-19T08:16:13.077Z,18.57
2023-04-19T08:18:16.110Z,18.23
2023-04-19T08:20:43.031Z,18.58
2023-04-19T08:23:18.542Z,18.54
2023-04-19T08:25:48.378Z,18.84
2023-04-19T08:28:15.165Z,19.27
2023-04-19T08:30:42.054Z,18.97
2023-04-19T08:33:09.281Z,18.32
2023-04-19T08:35:37.779Z,18.42
2023-04-19T08:38:04.724Z,18.33
2023-04-19T08:40:31.894Z,18.33
2023-04-19T08:42:59.141Z,18.40
2023-04-19T08:45:28.779Z,18.76
2023-04-19T08:48:01.175Z,18.93
2023-04-19T08:50:34.682Z,19.30
2023-04-19T08:53:24.123Z,19.12
2023-04-19T08:58:33.385Z,19.16
2023-04-19T09:01:12.800Z,19.00
2023-04-19T09:03:56.082Z,18.68
2023-04-19T09:06:35.354Z,19.20
2023-04-19T09:11:51.725Z,19.31
2023-04-19T09:14:19.804Z,19.37
2023-04-19T09:16:46.766Z,19.62
2023-04-19T09:19:23.368Z,19.75
2023-04-19T09:21:52.050Z,19.34
2023-04-19T09:24:18.981Z,19.60
2023-04-19T09:26:55.474Z,19.79
2023-04-19T09:29:22.564Z,20.12
2023-04-19T09:31:59.492Z,20.50
2023-04-19T09:34:26.768Z,20.52
2023-04-19T09:37:08.515Z,20.01
2023-04-19T09:39:40.380Z,20.02
2023-04-19T09:42:07.245Z,19.98
2023-04-19T09:45:12.634Z,19.77
2023-04-19T09:47:30.377Z,20.43
2023-04-19T09:52:40.320Z,20.39
2023-04-19T09:55:22.225Z,20.01
2023-04-19T09:57:53.489Z,19.97
2023-04-19T10:00:20.969Z,19.89
2023-04-19T10:02:52.244Z,19.74
2023-04-19T10:05:21.833Z,19.84
2023-04-19T10:07:50.054Z,20.01
2023-04-19T10:10:20.897Z,19.99
2023-04-19T10:13:11.627Z,20.05
2023-04-19T10:15:50.085Z,19.99
2023-04-19T10:18:18.715Z,19.77
2023-04-19T10:21:06.247Z,19.79
2023-04-19T10:23:34.277Z,19.59
2023-04-19T10:26:01.131Z,19.84
2023-04-19T10:28:31.242Z,19.85
2023-04-19T10:31:03.606Z,20.07
2023-04-19T10:33:40.640Z,20.28
2023-04-19T10:36:14.182Z,20.25
2023-04-19T10:38:48.348Z,19.99
2023-04-19T10:41:18.531Z,20.05
2023-04-19T10:44:09.930Z,20.23
2023-04-19T10:46:38.909Z,20.25
2023-04-19T10:49:06.568Z,20.45
2023-04-19T10:51:38.631Z,20.53
2023-04-19T10:54:33.592Z,21.02
2023-04-19T10:57:08.560Z,20.73
2023-04-19T10:59:39.386Z,20.74
2023-04-19T11:02:28.813Z,20.88
2023-04-19T11:04:55.984Z,20.72
2023-04-19T11:07:25.612Z,20.61
2023-04-19T11:09:52.701Z,20.79
2023-04-19T11:12:21.608Z,21.15
2023-04-19T11:14:52.232Z,21.36
2023-04-19T11:17:27.011Z,20.93
2023-04-19T11:20:06.434Z,20.72
2023-04-19T11:22:40.578Z,20.56
2023-04-19T11:25:14.380Z,20.46
2023-04-19T11:27:42.823Z,20.76
2023-04-19T11:30:14.317Z,20.41
2023-04-19T11:32:54.963Z,20.39
2023-04-19T11:35:24.316Z,20.13
2023-04-19T11:37:51.769Z,20.22
2023-04-19T11:40:20.911Z,20.54
2023-04-19T11:42:54.525Z,20.66
2023-04-19T11:45:39.677Z,20.21
2023-04-19T11:48:13.394Z,20.47
2023-04-19T11:50:45.137Z,20.58
2023-04-19T11:53:21.162Z,20.49
2023-04-19T11:55:53.204Z,20.22
2023-04-19T11:58:32.046Z,20.24
2023-04-19T12:01:10.230Z,20.36
2023-04-19T12:03:48.517Z,20.05
2023-04-19T12:06:32.595Z,19.97
2023-04-19T12:08:59.812Z,20.17
2023-04-19T12:11:47.789Z,20.30
2023-04-19T12:14:17.815Z,19.91
2023-04-19T12:16:45.292Z,19.84
2023-04-19T12:19:19.403Z,19.80
2023-04-19T12:21:47.552Z,19.71
2023-04-19T12:24:17.267Z,19.37
2023-04-19T12:26:56.154Z,19.55
2023-04-19T12:29:23.831Z,19.89
2023-04-19T12:31:50.813Z,19.71
2023-04-19T12:34:17.961Z,19.39
2023-04-19T12:36:44.909Z,19.51
2023-04-19T12:39:11.922Z,19.82
2023-04-19T12:41:38.828Z,19.56
2023-04-19T12:44:05.820Z,19.28
2023-04-19T12:46:32.726Z,19.43
2023-04-19T12:48:59.892Z,19.05
2023-04-19T12:51:26.820Z,19.18
2023-04-19T12:53:54.538Z,18.84
2023-04-19T12:56:21.525Z,18.77
2023-04-19T12:58:48.427Z,18.74
2023-04-19T13:01:15.436Z,18.80
2023-04-19T13:03:42.922Z,18.81
2023-04-19T13:06:09.965Z,18.87
2023-04-19T13:08:44.898Z,18.58
2023-04-19T13:11:17.489Z,18.73
2023-04-19T13:13:44.348Z,18.85
2023-04-19T13:16:11.585Z,18.91
2023-04-19T13:18:38.611Z,18.72
2023-04-19T13:21:08.031Z,18.51
2023-04-19T13:23:38.001Z,18.38
2023-04-19T13:26:05.044Z,18.63
2023-04-19T13:28:31.936Z,18.56
2023-04-19T13:30:58.997Z,18.62
2023-04-19T13:33:26.015Z,18.47
2023-04-19T13:35:52.853Z,18.69
2023-04-19T13:38:19.758Z,18.77
2023-04-19T13:40:46.642Z,18.81
2023-04-19T13:43:13.713Z,18.82
2023-04-19T13:45:40.625Z,18.77
2023-04-19T13:48:07.573Z,18.54
2023-04-19T13:50:34.709Z,18.56
2023-04-19T13:53:20.122Z,18.73
2023-04-19T13:55:47.056Z,18.45
2023-04-19T13:58:14.085Z,18.77
2023-04-19T14:00:40.995Z,18.74
2023-04-19T14:03:08.315Z,18.64
2023-04-19T14:05:36.016Z,18.67
2023-04-19T14:08:39.816Z,18.60
2023-04-19T14:11:25.478Z,18.54
2023-04-19T14:13:53.260Z,18.42
2023-04-19T14:16:21.212Z,18.71
2023-04-19T14:18:48.523Z,18.86
2023-04-19T14:21:15.562Z,18.52
2023-04-19T14:23:42.436Z,18.47
2023-04-19T14:26:09.254Z,18.42
2023-04-19T14:28:36.292Z,18.48
2023-04-19T14:31:03.076Z,18.26
2023-04-19T14:33:30.127Z,18.39
2023-04-19T14:35:59.412Z,18.27
2023-04-19T14:38:26.432Z,18.12
2023-04-19T14:40:53.321Z,18.05
2023-04-19T14:43:20.342Z,18.10
2023-04-19T14:45:49.438Z,18.13
2023-04-19T14:48:16.508Z,18.21
2023-04-19T14:51:02.276Z,17.90
2023-04-19T14:53:29.212Z,17.95
2023-04-19T14:55:56.095Z,17.71
2023-04-19T14:58:23.149Z,17.85
2023-04-19T15:00:50.053Z,17.75
2023-04-19T15:03:17.838Z,17.81
2023-04-19T15:05:45.119Z,17.55
2023-04-19T15:08:26.963Z,17.66
2023-04-19T15:10:57.401Z,17.60
2023-04-19T15:13:24.429Z,17.52
2023-04-19T15:15:51.683Z,17.69
2023-04-19T15:18:18.646Z,17.46
2023-04-19T15:20:46.679Z,17.20
2023-04-19T15:23:13.567Z,17.40
2023-04-19T15:25:40.542Z,17.50
2023-04-19T15:28:07.422Z,17.42
2023-04-19T15:30:36.530Z,17.53
2023-04-19T15:33:04.002Z,17.27
2023-04-19T15:35:30.979Z,17.29
2023-04-19T15:38:00.845Z,17.15
2023-04-19T15:40:46.302Z,17.13
2023-04-19T15:43:13.206Z,17.21
2023-04-19T15:45:40.231Z,17.32
2023-04-19T15:48:08.121Z,17.20
2023-04-19T15:50:37.786Z,17.25
2023-04-19T15:53:05.506Z,17.11
2023-04-19T15:55:33.334Z,17.14
2023-04-19T15:58:04.171Z,17.23
2023-04-19T16:00:31.234Z,17.17
2023-04-19T16:02:58.685Z,17.11
2023-04-19T16:05:25.900Z,17.11
2023-04-19T16:08:07.508Z,16.91
2023-04-19T16:10:35.382Z,16.94
2023-04-19T16:13:04.127Z,16.89
2023-04-19T16:15:31.183Z,16.91
2023-04-19T16:17:58.287Z,16.85
2023-04-19T16:20:25.489Z,16.79
2023-04-19T16:23:10.868Z,16.59
2023-04-19T16:25:37.835Z,16.65
2023-04-19T16:28:04.686Z,16.55
2023-04-19T16:30:31.795Z,16.48
2023-04-19T16:32:59.014Z,16.46
2023-04-19T16:35:26.712Z,16.42
2023-04-19T16:37:56.734Z,16.57
2023-04-19T16:40:24.498Z,16.45
2023-04-19T16:42:51.500Z,16.43
2023-04-19T16:45:18.596Z,16.47
2023-04-19T16:48:04.074Z,16.48
2023-04-19T16:50:31.342Z,16.43
2023-04-19T16:52:58.198Z,16.35
2023-04-19T16:55:25.181Z,16.36
2023-04-19T16:57:52.087Z,16.36
2023-04-19T17:00:19.395Z,16.28
2023-04-19T17:02:46.358Z,16.24
2023-04-19T17:05:14.177Z,16.33
2023-04-19T17:07:41.082Z,16.35
2023-04-19T17:10:08.729Z,16.33
2023-04-19T17:12:35.766Z,16.41
2023-04-19T17:15:02.707Z,16.30
2023-04-19T17:17:29.627Z,16.17
2023-04-19T17:19:56.990Z,16.26
2023-04-19T17:22:24.031Z,16.41
2023-04-19T17:24:50.969Z,16.20
2023-04-19T17:27:17.838Z,16.13
2023-04-19T17:29:44.863Z,16.12
2023-04-19T17:32:11.784Z,16.14
2023-04-19T17:34:38.763Z,16.24
2023-04-19T17:37:05.644Z,16.29
2023-04-19T17:39:32.617Z,16.19
2023-04-19T17:41:59.542Z,16.20
2023-04-19T17:44:26.434Z,16.17
2023-04-19T17:46:53.369Z,16.11
2023-04-19T17:49:20.380Z,16.17
2023-04-19T17:51:47.495Z,16.01
2023-04-19T17:54:15.548Z,15.98
2023-04-19T17:56:42.572Z,15.97
2023-04-19T17:59:09.505Z,16.02
2023-04-19T18:01:36.453Z,16.00
2023-04-19T18:04:22.007Z,15.99
2023-04-19T18:06:49.383Z,16.02
2023-04-19T18:09:19.511Z,15.95
2023-04-19T18:11:46.510Z,15.88
2023-04-19T18:14:13.473Z,15.85
2023-04-19T18:16:40.529Z,15.74
2023-04-19T18:19:07.456Z,15.72
2023-04-19T18:21:34.425Z,15.76
2023-04-19T18:24:01.315Z,15.67
2023-04-19T18:26:41.607Z,15.67
2023-04-19T18:29:09.419Z,15.68
2023-04-19T18:31:36.385Z,15.58
2023-04-19T18:34:03.841Z,15.64
2023-04-19T18:36:49.178Z,15.64
2023-04-19T18:39:16.385Z,15.62
2023-04-19T18:42:02.100Z,15.45
2023-04-19T18:44:49.399Z,15.49
2023-04-19T18:47:16.177Z,15.55
2023-04-19T18:49:51.612Z,15.20
2023-04-19T18:52:26.668Z,15.45
2023-04-19T18:54:53.910Z,15.31
2023-04-19T18:57:27.090Z,15.34
2023-04-19T18:59:56.811Z,15.20
2023-04-19T19:02:23.950Z,15.17
2023-04-19T19:04:57.972Z,15.18
2023-04-19T19:10:03.623Z,15.11
2023-04-19T19:12:37.252Z,15.13
2023-04-19T19:15:04.488Z,14.97
2023-04-19T19:17:32.068Z,15.00
2023-04-19T19:19:59.005Z,15.01
2023-04-19T19:22:28.799Z,14.93
2023-04-19T19:24:58.397Z,15.03
2023-04-19T19:27:27.542Z,14.80
2023-04-19T19:29:59.748Z,14.91
2023-04-19T19:32:31.216Z,14.85
2023-04-19T19:35:02.250Z,14.95
2023-04-19T19:37:36.244Z,14.96
2023-04-19T19:40:06.057Z,14.71
2023-04-19T19:42:34.731Z,14.93
2023-04-19T19:45:02.414Z,14.87
2023-04-19T19:47:29.328Z,14.93
2023-04-19T19:52:28.175Z,14.88
2023-04-19T19:54:55.214Z,14.69
2023-04-19T19:58:14.111Z,14.51
2023-04-19T20:00:31.800Z,14.83
2023-04-19T20:02:57.276Z,14.71
2023-04-19T20:05:26.328Z,14.73
2023-04-19T20:08:08.577Z,14.63
2023-04-19T20:10:37.502Z,14.63
2023-04-19T20:13:04.481Z,14.45
2023-04-19T20:15:31.617Z,14.45
2023-04-19T20:17:58.754Z,14.48
2023-04-19T20:20:25.853Z,14.43
2023-04-19T20:23:11.466Z,14.38
2023-04-19T20:25:38.644Z,14.54
2023-04-19T20:28:05.607Z,14.47
2023-04-19T20:30:32.499Z,14.43
2023-04-19T20:32:59.487Z,14.31
2023-04-19T20:35:26.643Z,14.28
2023-04-19T20:37:53.472Z,14.19
2023-04-19T20:40:20.746Z,14.21
2023-04-19T20:42:47.641Z,14.21
2023-04-19T20:45:14.701Z,14.20
2023-04-19T20:47:41.654Z,14.19
2023-04-19T20:50:09.120Z,14.19
2023-04-19T20:52:36.052Z,14.20
2023-04-19T20:55:03.376Z,14.09
2023-04-19T20:57:30.366Z,13.95
2023-04-19T20:59:59.655Z,14.01
2023-04-19T21:02:26.705Z,14.03
2023-04-19T21:04:53.794Z,14.01
2023-04-19T21:07:20.671Z,14.03
2023-04-19T21:09:47.550Z,13.94
2023-04-19T21:12:14.512Z,13.78
2023-04-19T21:14:41.463Z,13.89
2023-04-19T21:17:08.380Z,13.66
2023-04-19T21:19:35.307Z,13.72
2023-04-19T21:22:02.105Z,13.75
2023-04-19T21:24:29.033Z,13.67
2023-04-19T21:26:55.881Z,13.62
2023-04-19T21:29:22.865Z,13.59
2023-04-19T21:31:49.810Z,13.40
2023-04-19T21:34:16.739Z,13.36
2023-04-19T21:36:43.619Z,13.49
2023-04-19T21:39:10.525Z,13.51
2023-04-19T21:41:37.725Z,13.33
2023-04-19T21:44:04.755Z,13.39
2023-04-19T21:46:31.661Z,13.21
2023-04-19T21:48:58.569Z,13.24
2023-04-19T21:51:25.455Z,13.29
2023-04-19T21:53:52.306Z,13.11
2023-04-19T21:56:19.232Z,13.05
2023-04-19T21:58:46.049Z,13.06
2023-04-19T22:01:13.120Z,13.01
2023-04-19T22:03:40.259Z,12.97
2023-04-19T22:06:07.487Z,13.18
2023-04-19T22:08:34.510Z,13.04
2023-04-19T22:11:01.389Z,12.90
2023-04-19T22:13:28.232Z,12.78
2023-04-19T22:15:55.135Z,12.90
2023-04-19T22:18:22.037Z,12.86
2023-04-19T22:20:48.877Z,12.92
2023-04-19T22:23:15.696Z,12.88
2023-04-19T22:25:42.598Z,12.99
2023-04-19T22:28:09.435Z,12.74
2023-04-19T22:30:36.399Z,12.92
2023-04-19T22:33:03.537Z,12.87
2023-04-19T22:35:30.476Z,12.88
2023-04-19T22:37:57.378Z,12.91
2023-04-19T22:40:24.324Z,12.97
2023-04-19T22:42:51.142Z,12.80
2023-04-19T22:45:18.111Z,12.87
2023-04-19T22:47:45.074Z,12.80
2023-04-19T22:50:11.994Z,12.72
2023-04-19T22:52:38.894Z,12.65
2023-04-19T22:55:06.145Z,12.53
2023-04-19T22:57:32.970Z,12.53
2023-04-19T22:59:59.807Z,12.62
2023-04-19T23:02:26.806Z,12.24
2023-04-19T23:04:53.875Z,12.26
2023-04-19T23:07:20.860Z,12.39
2023-04-19T23:09:47.830Z,12.31
2023-04-19T23:12:14.731Z,12.28
2023-04-19T23:14:42.085Z,12.38
2023-04-19T23:17:09.014Z,12.39
2023-04-19T23:19:36.231Z,12.33
2023-04-19T23:22:03.086Z,12.38
2023-04-19T23:24:29.944Z,12.49
2023-04-19T23:26:56.756Z,12.33
2023-04-19T23:29:23.624Z,12.32
2023-04-19T23:31:50.590Z,12.48
2023-04-19T23:34:17.487Z,12.14
2023-04-19T23:36:44.630Z,12.47
2023-04-19T23:39:11.502Z,12.43
2023-04-19T23:41:38.331Z,12.32
2023-04-19T23:44:05.359Z,12.35
2023-04-19T23:46:32.303Z,12.50
2023-04-19T23:48:59.147Z,12.36
2023-04-19T23:51:26.041Z,12.48
2023-04-19T23:53:52.965Z,12.30
2023-04-19T23:56:19.971Z,12.12
2023-04-19T23:58:46.767Z,12.25
